Time;durP1;ratioP1;P1;durP2;ratioP2;P2;SDS_P1;SDS_P2;PMS_P1;PMS_P2;Temp;Humidity;BMP_temperature;BMP_pressure;BME280_temperature;BME280_humidity;BME280_pressure;Samples;Min_cycle;Max_cycle;Signal;HPM_P1;HPM_P2
2022/11/17 00:02:08;;;;;;;7.43;1.30;;;12.30;99.90;;;;;;5060474;28;20035;-72
2022/11/17 00:04:33;;;;;;;8.65;2.33;;;12.30;99.90;;;;;;5066614;28;20078;-72
2022/11/17 00:07:36;;;;;;;12.38;2.25;;;12.30;99.90;;;;;;5058446;28;20029;-72
2022/11/17 00:10:02;;;;;;;9.73;2.50;;;12.20;99.90;;;;;;5061369;28;20035;-74
2022/11/17 00:15:13;;;;;;;10.43;1.95;;;12.10;99.90;;;;;;5062946;28;20468;-74
2022/11/17 00:17:38;;;;;;;6.20;1.20;;;12.10;99.90;;;;;;5057791;28;20123;-74
2022/11/17 00:22:50;;;;;;;18.38;3.90;;;12.00;99.90;;;;;;5048473;28;20102;-74
2022/11/17 00:25:15;;;;;;;16.05;2.25;;;11.80;99.90;;;;;;5059041;28;20464;-74
2022/11/17 00:27:41;;;;;;;17.10;2.30;;;11.80;99.90;;;;;;5064205;28;20036;-74
2022/11/17 00:30:07;;;;;;;18.65;1.92;;;11.80;99.90;;;;;;5061511;28;20082;-72
2022/11/17 00:35:17;;;;;;;16.65;2.92;;;11.80;99.90;;;;;;5054742;28;20095;-71
2022/11/17 00:38:14;;;;;;;15.05;2.00;;;11.80;99.90;;;;;;5067566;28;20044;-71
2022/11/17 00:40:29;;;;;;;8.73;1.77;;;11.80;99.90;;;;;;5061780;28;20052;-72
2022/11/17 00:42:54;;;;;;;17.40;2.67;;;11.80;99.90;;;;;;5067889;28;20032;-71
2022/11/17 00:45:20;;;;;;;13.32;2.40;;;11.90;99.90;;;;;;5064752;28;20028;-72
2022/11/17 00:47:46;;;;;;;14.88;1.73;;;11.90;99.90;;;;;;5051720;28;20492;-72
2022/11/17 00:50:12;;;;;;;15.02;2.40;;;11.90;99.90;;;;;;5042386;28;20071;-71
2022/11/17 00:52:38;;;;;;;15.30;3.22;;;12.00;99.90;;;;;;5059587;28;20052;-72
2022/11/17 00:55:04;;;;;;;16.25;1.98;;;12.00;99.90;;;;;;5052342;28;20033;-71
2022/11/17 00:57:30;;;;;;;12.55;2.10;;;11.90;99.90;;;;;;5047586;28;21843;-74
2022/11/17 00:59:55;;;;;;;21.50;2.80;;;11.90;99.90;;;;;;5046903;28;20048;-73
2022/11/17 01:02:21;;;;;;;15.25;2.03;;;11.90;99.90;;;;;;5066148;28;20391;-71
2022/11/17 01:04:47;;;;;;;16.55;2.00;;;11.70;99.90;;;;;;5065433;28;20028;-72
2022/11/17 01:07:12;;;;;;;10.27;1.95;;;11.70;99.90;;;;;;5058189;28;20131;-72
2022/11/17 01:09:38;;;;;;;17.67;3.20;;;11.80;99.90;;;;;;5062477;28;20104;-73
2022/11/17 01:12:04;;;;;;;14.63;2.88;;;11.70;99.90;;;;;;5062223;28;20024;-72
2022/11/17 01:14:31;;;;;;;17.65;2.10;;;11.70;99.90;;;;;;5050578;28;20032;-71
2022/11/17 01:16:57;;;;;;;19.75;2.53;;;11.70;99.90;;;;;;5051186;28;20032;-72
2022/11/17 01:19:23;;;;;;;18.00;2.95;;;11.70;99.90;;;;;;5064839;28;20391;-71
2022/11/17 01:21:49;;;;;;;20.90;2.92;;;11.80;99.90;;;;;;5064992;28;20024;-72
2022/11/17 01:24:16;;;;;;;14.98;1.60;;;11.90;99.90;;;;;;5058867;28;20025;-73
2022/11/17 01:26:43;;;;;;;10.75;2.03;;;12.00;99.90;;;;;;5077018;28;20024;-74
2022/11/17 01:29:11;;;;;;;14.63;2.08;;;11.90;99.90;;;;;;5061674;28;20029;-74
2022/11/17 01:31:42;;;;;;;13.85;2.08;;;11.80;99.90;;;;;;5062282;28;20139;-73
2022/11/17 01:34:08;;;;;;;12.85;2.33;;;11.90;99.90;;;;;;5058839;28;20047;-74
2022/11/17 01:39:25;;;;;;;14.85;2.45;;;11.90;99.90;;;;;;5041019;28;20056;-73
2022/11/17 01:41:52;;;;;;;16.52;2.53;;;11.90;99.90;;;;;;5050467;28;20075;-73
2022/11/17 01:44:39;;;;;;;14.95;2.65;;;12.00;99.90;;;;;;5054713;28;20029;-73
2022/11/17 01:47:15;;;;;;;12.88;1.83;;;12.00;99.90;;;;;;5052605;28;20032;-74
2022/11/17 01:49:42;;;;;;;13.80;1.63;;;12.00;99.90;;;;;;5050506;28;20385;-73
2022/11/17 01:52:10;;;;;;;12.45;2.38;;;12.00;99.90;;;;;;5052332;28;20029;-74
2022/11/17 01:54:39;;;;;;;5.95;1.27;;;12.00;99.90;;;;;;5042024;28;20387;-74
2022/11/17 01:57:32;;;;;;;4.43;1.23;;;11.90;99.90;;;;;;5048521;28;20037;-73
2022/11/17 02:00:13;;;;;;;4.10;1.17;;;11.80;99.90;;;;;;5036170;28;20506;-73
2022/11/17 02:02:41;;;;;;;5.20;0.80;;;11.70;99.90;;;;;;5062251;28;20483;-72
2022/11/17 02:05:10;;;;;;;9.35;2.45;;;11.60;99.90;;;;;;5055567;28;20021;-72
2022/11/17 02:07:38;;;;;;;10.07;1.33;;;11.50;99.90;;;;;;5044717;28;20383;-72
2022/11/17 02:10:05;;;;;;;3.88;1.00;;;11.40;99.90;;;;;;5055677;28;20025;-72
2022/11/17 02:12:34;;;;;;;6.07;1.10;;;11.20;99.90;;;;;;5050416;28;20029;-72
2022/11/17 02:15:00;;;;;;;6.43;1.48;;;11.10;99.90;;;;;;5060718;28;20048;-72
2022/11/17 02:17:34;;;;;;;4.57;1.98;;;11.00;99.90;;;;;;5049991;28;20067;-71
2022/11/17 02:20:39;;;;;;;2.47;1.52;;;10.90;99.90;;;;;;5063106;28;20475;-73
2022/11/17 02:23:31;;;;;;;2.60;1.10;;;10.70;99.90;;;;;;5015132;28;20042;-72
2022/11/17 02:26:11;;;;;;;1.98;1.20;;;10.50;99.90;;;;;;4976594;28;20048;-73
2022/11/17 02:28:46;;;;;;;1.58;0.82;;;10.40;99.90;;;;;;5008593;28;20076;-74
2022/11/17 02:31:15;;;;;;;0.95;0.80;;;10.20;99.90;;;;;;5014536;28;20037;-73
2022/11/17 02:33:49;;;;;;;1.55;0.63;;;10.10;99.90;;;;;;5018762;28;20061;-72
2022/11/17 02:36:40;;;;;;;2.20;0.38;;;9.90;99.90;;;;;;5010245;28;20029;-69
2022/11/17 02:39:53;;;;;;;0.30;0.28;;;9.80;99.90;;;;;;4962675;28;20058;-70
2022/11/17 02:45:24;;;;;;;0.10;0.10;;;9.60;99.90;;;;;;4989670;28;20026;-70
2022/11/17 02:47:53;;;;;;;0.40;0.20;;;9.50;99.90;;;;;;5013091;28;20124;-71
2022/11/17 02:50:22;;;;;;;0.10;0.10;;;9.40;99.90;;;;;;5015861;28;20533;-72
2022/11/17 02:52:48;;;;;;;2.67;0.22;;;9.30;99.90;;;;;;5003721;28;20582;-73
2022/11/17 02:55:14;;;;;;;0.20;0.10;;;9.30;99.90;;;;;;5013941;28;20116;-70
2022/11/17 02:57:40;;;;;;;0.45;0.20;;;9.20;99.90;;;;;;4999289;28;20508;-69
2022/11/17 03:00:19;;;;;;;1.88;0.35;;;9.10;99.90;;;;;;5039023;28;20126;-69
2022/11/17 03:03:06;;;;;;;0.85;0.10;;;9.00;99.90;;;;;;5066054;28;20037;-71
2022/11/17 03:05:43;;;;;;;0.00;0.00;;;8.90;99.90;;;;;;5059762;28;20047;-72
2022/11/17 03:08:20;;;;;;;0.28;0.13;;;8.90;99.90;;;;;;5057425;28;20055;-72
2022/11/17 03:11:04;;;;;;;0.65;0.00;;;8.90;99.90;;;;;;5049875;28;20029;-69
2022/11/17 03:13:35;;;;;;;0.20;0.00;;;8.80;99.90;;;;;;5058316;28;20025;-71
2022/11/17 03:16:10;;;;;;;0.43;0.43;;;8.80;99.90;;;;;;5061022;28;20084;-73
2022/11/17 03:18:42;;;;;;;0.10;0.10;;;8.80;99.90;;;;;;5043907;28;20063;-72
2022/11/17 03:21:22;;;;;;;0.10;0.00;;;8.80;99.90;;;;;;5058127;28;20052;-72
2022/11/17 03:23:51;;;;;;;0.55;0.08;;;8.80;99.90;;;;;;5052887;28;20032;-74
2022/11/17 03:26:24;;;;;;;1.38;0.10;;;8.80;99.90;;;;;;5059835;28;20055;-74
2022/11/17 03:28:51;;;;;;;0.03;0.03;;;8.80;99.90;;;;;;5049440;28;20100;-73
2022/11/17 03:31:19;;;;;;;0.52;0.10;;;8.90;99.90;;;;;;5060192;28;20039;-73
2022/11/17 03:33:48;;;;;;;0.05;0.05;;;8.90;99.90;;;;;;5067039;28;20028;-72
2022/11/17 03:36:18;;;;;;;0.20;0.20;;;8.90;99.90;;;;;;5060284;28;20036;-73
2022/11/17 03:38:55;;;;;;;0.68;0.10;;;8.90;99.90;;;;;;5061476;28;20040;-71
2022/11/17 03:41:22;;;;;;;0.10;0.10;;;8.90;99.90;;;;;;5059763;28;20450;-72
2022/11/17 03:43:50;;;;;;;0.10;0.10;;;8.90;99.90;;;;;;5064240;28;20028;-71
2022/11/17 03:46:19;;;;;;;0.10;0.10;;;8.90;99.90;;;;;;5062124;28;20025;-70
2022/11/17 03:49:33;;;;;;;0.30;0.10;;;8.90;99.90;;;;;;5057976;28;20454;-72
2022/11/17 03:51:59;;;;;;;0.10;0.10;;;8.80;99.90;;;;;;5015966;28;20072;-74
2022/11/17 03:54:25;;;;;;;0.10;0.10;;;8.80;99.90;;;;;;5017907;28;20034;-75
2022/11/17 03:57:15;;;;;;;0.10;0.00;;;8.80;99.90;;;;;;5017814;28;20061;-76
2022/11/17 04:00:06;;;;;;;1.00;0.10;;;8.80;99.90;;;;;;5007791;28;20053;-77
2022/11/17 04:02:32;;;;;;;0.10;0.10;;;8.80;99.90;;;;;;5013909;28;20030;-77
2022/11/17 04:05:06;;;;;;;0.30;0.30;;;8.90;99.90;;;;;;5015905;28;20034;-76
2022/11/17 04:07:33;;;;;;;0.20;0.20;;;8.90;99.90;;;;;;5016885;28;20025;-77
2022/11/17 04:09:59;;;;;;;0.10;0.10;;;8.90;99.90;;;;;;5013727;28;20034;-77
2022/11/17 04:17:55;;;;;;;1.38;0.50;;;8.90;99.90;;;;;;5010079;28;20184;-76
2022/11/17 04:20:21;;;;;;;0.93;0.40;;;8.90;99.90;;;;;;5009676;28;20120;-76
2022/11/17 04:23:05;;;;;;;0.55;0.55;;;8.90;99.90;;;;;;5012002;28;20041;-77
2022/11/17 04:28:37;;;;;;;0.57;0.20;;;8.90;99.90;;;;;;5021649;28;20036;-77
2022/11/17 04:31:11;;;;;;;1.05;0.52;;;8.90;99.90;;;;;;5058509;28;20025;-77
2022/11/17 04:33:40;;;;;;;1.58;0.40;;;8.90;99.90;;;;;;5060081;28;20031;-73
2022/11/17 04:36:07;;;;;;;1.00;0.47;;;8.90;99.90;;;;;;5059137;28;20047;-75
2022/11/17 04:38:33;;;;;;;0.77;0.60;;;9.00;99.90;;;;;;5053513;28;20024;-77
2022/11/17 04:43:48;;;;;;;0.47;0.40;;;8.90;99.90;;;;;;5058350;28;20542;-85
2022/11/17 04:46:15;;;;;;;0.90;0.60;;;8.90;99.90;;;;;;5069163;28;20032;-84
2022/11/17 04:48:40;;;;;;;1.73;0.57;;;9.00;99.90;;;;;;5052002;28;20056;-80
2022/11/17 04:51:06;;;;;;;2.05;0.50;;;9.00;99.90;;;;;;5048828;28;20036;-78
2022/11/17 04:53:32;;;;;;;2.67;0.80;;;9.00;99.90;;;;;;5064770;28;20016;-77
2022/11/17 04:56:01;;;;;;;1.55;0.63;;;9.00;99.90;;;;;;5064962;28;20024;-76
2022/11/17 04:58:27;;;;;;;1.90;0.68;;;9.00;99.90;;;;;;5038857;28;20037;-73
2022/11/17 05:00:53;;;;;;;1.90;0.60;;;9.10;99.90;;;;;;5053842;28;20029;-74
2022/11/17 05:03:19;;;;;;;1.88;0.47;;;9.10;99.90;;;;;;5056891;28;20017;-74
2022/11/17 05:05:48;;;;;;;1.90;0.80;;;9.00;99.90;;;;;;5055550;28;20043;-73
2022/11/17 05:08:14;;;;;;;1.10;0.40;;;9.00;99.90;;;;;;5051489;28;20071;-73
2022/11/17 05:13:25;;;;;;;0.38;0.38;;;9.10;99.90;;;;;;5055140;28;20039;-73
2022/11/17 05:18:40;;;;;;;4.25;0.52;;;9.10;99.90;;;;;;5038182;28;20040;-73
2022/11/17 05:21:08;;;;;;;0.43;0.35;;;9.10;99.90;;;;;;5067755;28;20063;-72
2022/11/17 05:23:52;;;;;;;0.60;0.40;;;9.10;99.90;;;;;;5067161;28;20499;-72
2022/11/17 05:26:20;;;;;;;1.10;0.40;;;9.00;99.90;;;;;;5058550;28;20051;-72
2022/11/17 05:28:47;;;;;;;1.30;0.40;;;9.00;99.90;;;;;;5049847;28;20400;-73
2022/11/17 05:31:13;;;;;;;0.70;0.30;;;9.00;99.90;;;;;;5049688;28;20032;-72
2022/11/17 05:33:40;;;;;;;2.90;0.50;;;8.90;99.90;;;;;;5063633;28;20051;-72
2022/11/17 05:36:06;;;;;;;1.55;0.60;;;8.90;99.90;;;;;;5060151;28;20064;-72
2022/11/17 05:38:32;;;;;;;1.30;0.50;;;8.90;99.90;;;;;;5057390;28;20115;-71
2022/11/17 05:40:58;;;;;;;2.35;0.52;;;8.90;99.90;;;;;;5054659;28;20063;-72
2022/11/17 05:43:24;;;;;;;0.60;0.47;;;8.90;99.90;;;;;;5050892;28;20029;-71
2022/11/17 05:45:50;;;;;;;0.60;0.38;;;8.90;99.90;;;;;;5061427;28;20110;-71
2022/11/17 05:48:16;;;;;;;0.50;0.35;;;8.90;99.90;;;;;;5056543;28;20380;-71
2022/11/17 05:50:41;;;;;;;3.38;0.35;;;8.90;99.90;;;;;;5051398;28;20062;-71
2022/11/17 05:53:07;;;;;;;1.10;0.35;;;8.90;99.90;;;;;;5053968;28;20025;-71
2022/11/17 05:55:33;;;;;;;0.30;0.30;;;8.90;99.90;;;;;;5048664;28;20035;-70
2022/11/17 05:58:03;;;;;;;2.40;0.77;;;8.80;99.90;;;;;;5052110;28;20052;-70
2022/11/17 06:00:30;;;;;;;0.40;0.30;;;8.70;99.90;;;;;;5052380;28;20029;-69
2022/11/17 06:03:01;;;;;;;0.70;0.20;;;8.70;99.90;;;;;;5059163;28;20032;-72
2022/11/17 06:05:27;;;;;;;0.10;0.10;;;8.80;99.90;;;;;;5050004;28;20146;-70
2022/11/17 06:07:54;;;;;;;3.53;0.47;;;8.80;99.90;;;;;;5063079;28;20064;-70
2022/11/17 06:10:20;;;;;;;0.98;0.30;;;8.80;99.90;;;;;;5056905;28;20028;-69
2022/11/17 06:12:46;;;;;;;0.98;0.20;;;8.80;99.90;;;;;;5056438;28;20090;-70
2022/11/17 06:15:12;;;;;;;2.58;0.80;;;8.90;99.90;;;;;;5052253;28;20044;-70
2022/11/17 06:17:49;;;;;;;1.98;0.30;;;8.80;99.90;;;;;;5050970;28;20036;-70
2022/11/17 06:20:22;;;;;;;0.82;0.22;;;8.70;99.90;;;;;;5046109;28;20506;-70
2022/11/17 06:22:49;;;;;;;1.10;1.00;;;8.70;99.90;;;;;;5060050;28;20112;-70
2022/11/17 06:25:15;;;;;;;0.32;0.10;;;8.60;99.90;;;;;;5055118;28;20496;-70
2022/11/17 06:27:41;;;;;;;2.15;0.20;;;8.60;99.90;;;;;;5059543;28;20032;-72
2022/11/17 06:30:07;;;;;;;0.77;0.20;;;8.60;99.90;;;;;;5050548;28;20333;-72
2022/11/17 06:32:36;;;;;;;2.60;0.20;;;8.60;99.90;;;;;;5041723;28;20112;-70
2022/11/17 06:35:04;;;;;;;2.08;0.20;;;8.60;99.90;;;;;;5053753;28;20052;-70
2022/11/17 06:37:30;;;;;;;0.70;0.10;;;8.50;99.90;;;;;;5045444;28;20047;-70
2022/11/17 06:39:56;;;;;;;0.52;0.22;;;8.50;99.90;;;;;;5055614;28;20021;-70
2022/11/17 06:43:02;;;;;;;1.45;0.10;;;8.40;99.90;;;;;;5051913;28;20074;-70
2022/11/17 06:45:08;;;;;;;1.95;0.20;;;8.40;99.90;;;;;;5054784;28;20086;-70
2022/11/17 06:47:33;;;;;;;1.00;0.65;;;8.40;99.90;;;;;;5043464;28;20116;-70
2022/11/17 06:50:04;;;;;;;2.13;0.40;;;8.40;99.90;;;;;;5048377;28;20112;-71
2022/11/17 06:52:29;;;;;;;6.30;1.08;;;8.40;99.90;;;;;;5047294;28;20039;-70
2022/11/17 06:54:55;;;;;;;1.27;0.10;;;8.30;99.90;;;;;;5041838;28;20025;-71
2022/11/17 06:57:21;;;;;;;1.35;0.20;;;8.30;99.90;;;;;;5056688;28;20120;-70
2022/11/17 06:59:46;;;;;;;2.28;0.20;;;8.30;99.90;;;;;;5048764;28;20021;-70
2022/11/17 07:02:12;;;;;;;1.02;0.17;;;8.30;99.90;;;;;;5053745;28;20025;-70
2022/11/17 07:04:38;;;;;;;1.00;0.50;;;8.30;99.90;;;;;;5047433;28;20033;-70
2022/11/17 07:07:04;;;;;;;2.47;0.38;;;8.40;99.90;;;;;;5051685;28;20391;-69
2022/11/17 07:09:29;;;;;;;1.98;0.50;;;8.40;99.90;;;;;;5050149;28;20054;-70
2022/11/17 07:11:56;;;;;;;1.45;1.05;;;8.40;99.90;;;;;;5047919;28;20025;-70
2022/11/17 07:14:21;;;;;;;2.47;0.50;;;8.40;99.90;;;;;;5049145;28;20044;-69
2022/11/17 07:16:47;;;;;;;2.20;0.55;;;8.50;99.90;;;;;;5059952;28;20037;-68
2022/11/17 07:19:13;;;;;;;4.00;0.70;;;8.50;99.90;;;;;;5056214;28;20032;-69
2022/11/17 07:21:38;;;;;;;2.88;0.88;;;8.60;99.90;;;;;;5056729;28;20033;-69
2022/11/17 07:24:04;;;;;;;2.70;1.05;;;8.60;99.90;;;;;;5050496;28;20450;-69
2022/11/17 07:26:30;;;;;;;3.65;0.80;;;8.60;99.90;;;;;;5046271;28;20044;-69
2022/11/17 07:28:56;;;;;;;1.38;0.63;;;8.60;99.90;;;;;;5050579;28;20037;-69
2022/11/17 07:31:22;;;;;;;4.03;0.50;;;8.60;99.90;;;;;;5046617;28;20029;-69
2022/11/17 07:33:49;;;;;;;3.70;0.50;;;8.60;99.90;;;;;;5048142;28;20041;-68
2022/11/17 07:36:15;;;;;;;1.95;0.60;;;8.70;99.90;;;;;;5055973;28;20104;-69
2022/11/17 07:38:41;;;;;;;2.60;1.00;;;8.70;99.90;;;;;;5048467;28;20350;-68
2022/11/17 07:41:09;;;;;;;1.33;0.85;;;8.80;99.90;;;;;;5066355;28;20029;-68
2022/11/17 07:43:36;;;;;;;1.85;0.68;;;8.80;99.90;;;;;;5042877;28;20037;-68
2022/11/17 07:46:09;;;;;;;4.32;0.75;;;8.90;99.90;;;;;;5051665;28;20460;-70
2022/11/17 07:48:35;;;;;;;0.65;0.43;;;9.00;99.90;;;;;;5033775;28;20025;-67
2022/11/17 07:51:03;;;;;;;2.38;0.77;;;9.00;99.90;;;;;;5038026;28;20025;-70
2022/11/17 07:53:30;;;;;;;0.80;0.60;;;9.10;99.90;;;;;;5045414;28;20372;-69
2022/11/17 07:55:56;;;;;;;2.50;0.90;;;9.10;99.90;;;;;;5043770;28;20476;-67
2022/11/17 07:58:24;;;;;;;3.40;0.80;;;9.10;99.90;;;;;;5037809;28;20096;-69
2022/11/17 08:00:53;;;;;;;1.15;0.65;;;9.10;99.90;;;;;;5041607;28;20096;-69
2022/11/17 08:03:19;;;;;;;1.75;0.63;;;9.10;99.90;;;;;;5043058;28;20079;-69
2022/11/17 08:05:44;;;;;;;1.90;0.50;;;9.10;99.90;;;;;;5049348;28;20037;-68
2022/11/17 08:08:12;;;;;;;2.42;0.80;;;9.20;99.90;;;;;;5056523;28;20163;-68
2022/11/17 08:10:38;;;;;;;6.55;1.63;;;9.20;99.90;;;;;;5037006;28;20087;-67
2022/11/17 08:13:05;;;;;;;4.93;1.23;;;9.20;99.90;;;;;;5041434;28;20036;-68
2022/11/17 08:15:30;;;;;;;1.10;0.40;;;9.30;99.90;;;;;;5041646;28;20042;-68
2022/11/17 08:17:58;;;;;;;3.22;0.88;;;9.30;99.90;;;;;;5044707;28;20391;-68
2022/11/17 08:20:26;;;;;;;3.90;0.93;;;9.40;99.90;;;;;;5044772;28;20022;-68
2022/11/17 08:22:53;;;;;;;4.03;1.02;;;9.40;99.90;;;;;;5045507;28;20030;-68
2022/11/17 08:25:20;;;;;;;2.50;0.85;;;9.40;99.90;;;;;;5051791;28;20022;-69
2022/11/17 08:27:50;;;;;;;2.50;0.95;;;9.40;99.90;;;;;;5055605;28;20032;-69
2022/11/17 08:30:17;;;;;;;2.25;0.80;;;9.40;99.90;;;;;;5043651;28;20086;-68
2022/11/17 08:32:48;;;;;;;1.75;0.50;;;9.50;99.90;;;;;;5047257;28;20036;-69
2022/11/17 08:35:15;;;;;;;3.13;0.77;;;9.50;99.90;;;;;;5034851;28;20033;-68
2022/11/17 08:37:41;;;;;;;3.05;1.02;;;9.60;99.90;;;;;;5040995;28;20042;-69
2022/11/17 08:40:08;;;;;;;2.55;0.70;;;9.60;99.90;;;;;;5040822;28;20029;-68
2022/11/17 08:42:33;;;;;;;2.08;0.70;;;9.70;99.90;;;;;;5040740;28;20025;-68
2022/11/17 08:44:59;;;;;;;4.18;1.02;;;9.70;99.90;;;;;;5044167;28;20018;-73
2022/11/17 08:47:25;;;;;;;6.05;1.70;;;9.70;99.90;;;;;;5034824;28;20478;-68
2022/11/17 08:49:51;;;;;;;2.97;0.93;;;9.80;99.90;;;;;;5044327;28;20036;-67
2022/11/17 08:52:18;;;;;;;2.08;0.73;;;9.80;99.90;;;;;;5060895;28;20040;-68
2022/11/17 08:54:44;;;;;;;2.78;1.30;;;9.90;99.90;;;;;;5049173;28;20142;-68
2022/11/17 08:57:10;;;;;;;0.75;0.75;;;9.90;99.90;;;;;;5060167;28;20124;-68
2022/11/17 08:59:36;;;;;;;6.15;1.30;;;10.00;99.90;;;;;;5050262;28;20158;-69
2022/11/17 09:02:01;;;;;;;5.53;1.20;;;10.00;99.90;;;;;;5054534;28;20481;-70
2022/11/17 09:04:27;;;;;;;2.97;1.08;;;10.10;99.90;;;;;;5057319;28;20346;-72
2022/11/17 09:06:53;;;;;;;2.58;0.93;;;10.20;99.90;;;;;;5053567;28;20122;-73
2022/11/17 09:09:19;;;;;;;5.47;0.98;;;10.20;99.90;;;;;;5047152;28;20025;-72
2022/11/17 09:11:44;;;;;;;1.92;0.93;;;10.20;99.90;;;;;;5043285;28;20037;-73
2022/11/17 09:14:10;;;;;;;7.57;1.00;;;10.30;99.90;;;;;;5048090;28;20471;-73
2022/11/17 09:16:36;;;;;;;3.42;1.05;;;10.30;99.90;;;;;;5047488;28;20049;-73
2022/11/17 09:19:02;;;;;;;1.73;0.98;;;10.30;99.90;;;;;;5040994;28;20409;-73
2022/11/17 09:21:31;;;;;;;2.60;0.98;;;10.40;99.90;;;;;;5053399;28;20455;-72
2022/11/17 09:23:56;;;;;;;5.60;0.90;;;10.50;99.90;;;;;;5039976;28;20051;-72
2022/11/17 09:26:22;;;;;;;3.95;1.10;;;10.50;99.90;;;;;;5040672;28;20425;-72
2022/11/17 09:28:48;;;;;;;2.15;0.90;;;10.70;99.90;;;;;;5041277;28;20041;-72
2022/11/17 09:31:19;;;;;;;1.30;0.70;;;10.80;99.90;;;;;;5038055;28;20033;-71
2022/11/17 09:33:45;;;;;;;2.13;0.68;;;10.90;99.90;;;;;;5042546;28;20388;-71
2022/11/17 09:36:13;;;;;;;2.70;0.80;;;10.90;99.90;;;;;;5043744;28;20026;-70
2022/11/17 09:38:39;;;;;;;3.38;1.10;;;10.80;99.90;;;;;;5041232;28;20059;-72
2022/11/17 09:41:27;;;;;;;2.15;0.70;;;10.90;99.90;;;;;;5043044;28;20472;-62
2022/11/17 09:44:30;;;;;;;4.18;0.77;;;10.90;99.90;;;;;;5036915;28;20056;-72
2022/11/17 09:47:05;;;;;;;3.47;1.10;;;10.90;99.90;;;;;;5044039;28;20488;-73
2022/11/17 09:50:05;;;;;;;0.55;0.40;;;10.90;99.90;;;;;;5038667;28;20094;-72
2022/11/17 09:52:58;;;;;;;2.67;1.08;;;10.90;99.90;;;;;;5039117;28;20041;-72
2022/11/17 09:55:28;;;;;;;1.05;0.50;;;10.90;99.90;;;;;;5045636;28;20047;-72
2022/11/17 09:58:18;;;;;;;2.53;0.50;;;10.90;99.90;;;;;;5046405;28;20496;-64
2022/11/17 10:00:51;;;;;;;4.15;1.52;;;10.90;99.90;;;;;;5049643;28;20037;-72
2022/11/17 10:03:36;;;;;;;5.97;1.88;;;11.00;99.90;;;;;;5046564;28;20068;-72
2022/11/17 10:06:12;;;;;;;3.78;0.80;;;10.90;99.90;;;;;;5052983;28;20082;-72
2022/11/17 10:08:45;;;;;;;2.45;0.68;;;11.00;99.90;;;;;;5048113;28;20112;-71
2022/11/17 10:11:32;;;;;;;2.53;0.68;;;11.00;99.90;;;;;;5049886;28;20036;-71
2022/11/17 10:14:07;;;;;;;3.90;1.10;;;10.90;99.90;;;;;;5045363;28;20056;-72
2022/11/17 10:16:33;;;;;;;3.10;0.50;;;10.90;99.90;;;;;;5053256;28;20063;-68
2022/11/17 10:19:13;;;;;;;2.15;0.60;;;10.80;99.90;;;;;;5052326;28;20107;-71
2022/11/17 10:21:39;;;;;;;0.95;0.60;;;10.80;99.90;;;;;;5050637;28;20029;-69
2022/11/17 10:24:05;;;;;;;3.80;0.68;;;10.70;99.90;;;;;;5051755;28;20040;-69
2022/11/17 10:26:46;;;;;;;4.38;0.52;;;10.80;99.90;;;;;;5052506;28;20337;-69
2022/11/17 10:29:14;;;;;;;4.07;0.90;;;10.80;99.90;;;;;;5049093;28;20020;-70
2022/11/17 10:31:42;;;;;;;0.98;0.65;;;10.80;99.90;;;;;;5043136;28;20057;-69
2022/11/17 10:34:28;;;;;;;3.65;0.82;;;10.80;99.90;;;;;;5052971;28;20060;-70
2022/11/17 10:36:54;;;;;;;1.73;0.50;;;10.70;99.90;;;;;;5046887;28;20037;-69
2022/11/17 10:39:38;;;;;;;0.65;0.40;;;10.80;99.90;;;;;;5039482;28;20037;-69
2022/11/17 10:42:27;;;;;;;3.40;0.65;;;10.90;99.90;;;;;;5050183;28;20090;-71
2022/11/17 10:44:57;;;;;;;2.45;0.50;;;10.90;99.90;;;;;;5051296;28;20053;-69
2022/11/17 10:47:32;;;;;;;0.65;0.20;;;11.00;99.90;;;;;;5048703;28;20044;-69
2022/11/17 10:50:18;;;;;;;1.40;0.40;;;11.00;99.90;;;;;;5044394;28;20112;-71
2022/11/17 10:52:45;;;;;;;1.23;0.50;;;11.20;99.90;;;;;;5056157;28;20033;-71
2022/11/17 10:55:32;;;;;;;5.97;0.90;;;11.40;99.90;;;;;;5042463;28;20630;-70
2022/11/17 10:58:08;;;;;;;4.10;0.65;;;11.60;99.90;;;;;;5052180;28;20496;-72
2022/11/17 11:00:36;;;;;;;2.35;0.47;;;11.70;99.90;;;;;;5047290;28;20025;-71
2022/11/17 11:03:20;;;;;;;1.83;0.70;;;11.90;99.90;;;;;;5053752;28;20028;-70
2022/11/17 11:06:04;;;;;;;2.47;0.73;;;12.00;99.90;;;;;;5036687;28;20032;-71
2022/11/17 11:08:50;;;;;;;1.17;0.50;;;12.20;99.90;;;;;;5047480;28;20025;-71
2022/11/17 11:11:27;;;;;;;3.13;0.63;;;12.90;99.90;;;;;;5050909;28;20455;-70
2022/11/17 11:14:23;;;;;;;2.97;0.68;;;13.40;99.90;;;;;;5060095;28;20032;-69
2022/11/17 11:16:49;;;;;;;2.70;0.40;;;13.80;99.90;;;;;;5049968;28;20135;-69
2022/11/17 11:19:17;;;;;;;1.63;0.30;;;13.80;99.90;;;;;;5049550;28;20025;-70
2022/11/17 11:22:21;;;;;;;5.05;0.98;;;13.80;99.90;;;;;;5051241;28;20480;-69
2022/11/17 11:25:08;;;;;;;0.98;0.30;;;14.10;99.90;;;;;;5052383;28;20065;-78
2022/11/17 11:27:46;;;;;;;1.80;0.47;;;14.50;99.90;;;;;;5044230;28;20021;-77
2022/11/17 11:30:15;;;;;;;3.15;0.43;;;14.60;99.90;;;;;;5054390;28;20255;-76
2022/11/17 11:32:59;;;;;;;1.98;0.70;;;14.60;99.90;;;;;;5056514;28;20033;-77
2022/11/17 11:35:47;;;;;;;3.40;0.50;;;14.30;99.90;;;;;;5047606;28;20033;-76
2022/11/17 11:38:40;;;;;;;1.95;0.52;;;14.30;99.90;;;;;;5056195;28;20041;-76
2022/11/17 11:41:30;;;;;;;1.90;0.60;;;14.70;99.90;;;;;;5053385;28;20036;-67
2022/11/17 11:44:28;;;;;;;2.33;0.55;;;14.80;99.90;;;;;;5047673;28;20195;-77
2022/11/17 11:47:04;;;;;;;2.58;0.47;;;14.90;99.90;;;;;;5053873;28;20502;-79
2022/11/17 11:49:57;;;;;;;2.92;0.50;;;15.00;99.90;;;;;;5054861;28;20154;-79
2022/11/17 11:52:31;;;;;;;1.63;0.50;;;15.10;99.90;;;;;;5061228;28;20040;-79
2022/11/17 11:55:23;;;;;;;1.00;0.30;;;14.90;99.90;;;;;;5050035;28;20028;-80
2022/11/17 11:58:15;;;;;;;0.95;0.45;;;14.50;99.90;;;;;;5051104;28;20032;-77
2022/11/17 12:00:43;;;;;;;0.73;0.40;;;14.70;99.90;;;;;;5049985;28;20036;-77
2022/11/17 12:03:35;;;;;;;3.13;0.40;;;14.30;99.90;;;;;;5057178;28;20048;-77
2022/11/17 12:06:41;;;;;;;2.60;0.73;;;14.40;99.90;;;;;;5046980;28;20020;-78
2022/11/17 12:09:15;;;;;;;1.50;0.32;;;14.70;99.90;;;;;;5051687;28;20447;-78
2022/11/17 12:12:15;;;;;;;2.05;0.30;;;15.00;99.90;;;;;;5054361;28;20064;-76
2022/11/17 12:14:36;;;;;;;1.67;0.40;;;15.40;99.90;;;;;;5051008;28;20025;-77
2022/11/17 12:17:22;;;;;;;2.15;0.60;;;15.10;99.90;;;;;;5055280;28;20557;-76
2022/11/17 12:19:54;;;;;;;1.65;0.40;;;15.60;99.90;;;;;;5059223;28;20116;-77
2022/11/17 12:22:42;;;;;;;;;;;15.60;99.90;;;;;;5055416;28;20033;-76
2022/11/17 12:25:26;;;;;;;0.55;0.32;;;15.50;99.90;;;;;;5050404;28;19915;-76
2022/11/17 12:27:52;;;;;;;3.03;0.43;;;15.40;99.90;;;;;;5053394;28;20045;-77
2022/11/17 12:30:50;;;;;;;2.40;0.30;;;15.80;99.90;;;;;;5060056;28;20494;-78
2022/11/17 12:33:16;;;;;;;1.38;0.28;;;15.70;99.90;;;;;;5044855;28;20040;-80
2022/11/17 12:35:42;;;;;;;0.82;0.20;;;16.10;99.90;;;;;;5055140;28;20028;-81
2022/11/17 12:38:16;;;;;;;0.52;0.30;;;15.90;99.90;;;;;;5054721;28;20083;-75
2022/11/17 12:40:47;;;;;;;1.30;0.70;;;15.30;99.90;;;;;;5051452;28;20428;-78
2022/11/17 12:43:15;;;;;;;1.98;0.45;;;15.50;99.90;;;;;;5052636;28;20035;-77
2022/11/17 12:46:17;;;;;;;1.27;0.38;;;16.10;99.90;;;;;;5056564;28;20498;-82
2022/11/17 12:49:04;;;;;;;4.22;0.50;;;16.60;99.90;;;;;;5044697;28;20041;-75
2022/11/17 12:51:41;;;;;;;2.67;1.10;;;17.40;99.90;;;;;;5045623;28;20025;-73
2022/11/17 12:54:15;;;;;;;1.48;1.00;;;17.50;99.90;;;;;;5047889;28;20037;-72
2022/11/17 12:57:03;;;;;;;3.20;0.47;;;17.70;99.90;;;;;;5049936;28;20079;-72
2022/11/17 12:59:57;;;;;;;2.83;0.90;;;18.10;99.90;;;;;;5045008;28;20476;-71
2022/11/17 13:02:23;;;;;;;1.23;0.40;;;17.50;99.90;;;;;;5040409;28;20068;-68
2022/11/17 13:04:59;;;;;;;2.75;0.70;;;17.80;99.90;;;;;;5053659;28;20056;-69
2022/11/17 13:07:25;;;;;;;5.03;1.77;;;17.90;99.90;;;;;;5051084;28;20087;-68
2022/11/17 13:09:56;;;;;;;3.85;0.68;;;18.40;99.90;;;;;;5049057;28;20112;-68
2022/11/17 13:12:28;;;;;;;2.70;0.70;;;18.50;99.90;;;;;;5042865;28;20029;-67
2022/11/17 13:14:55;;;;;;;3.05;1.02;;;18.70;99.90;;;;;;5049218;28;20064;-68
2022/11/17 13:17:28;;;;;;;5.22;0.52;;;18.40;99.90;;;;;;5047945;28;20128;-68
2022/11/17 13:20:11;;;;;;;4.13;0.80;;;18.30;99.90;;;;;;5052399;28;20029;-67
2022/11/17 13:22:37;;;;;;;1.80;0.30;;;18.20;99.90;;;;;;5047633;28;20104;-68
2022/11/17 13:25:21;;;;;;;1.85;0.45;;;17.90;99.90;;;;;;5051157;28;20040;-68
2022/11/17 13:27:47;;;;;;;2.42;0.50;;;17.80;99.90;;;;;;5049246;28;20029;-68
2022/11/17 13:30:20;;;;;;;2.28;0.60;;;17.50;99.90;;;;;;5047079;28;20438;-66
2022/11/17 13:32:46;;;;;;;1.35;0.32;;;17.60;99.90;;;;;;5047636;28;20031;-68
2022/11/17 13:35:24;;;;;;;2.00;0.70;;;17.40;99.90;;;;;;5049458;28;20033;-68
2022/11/17 13:38:22;;;;;;;2.40;0.50;;;17.60;99.90;;;;;;5053551;28;20049;-68
2022/11/17 13:40:49;;;;;;;3.50;0.40;;;17.40;99.90;;;;;;5043704;28;20025;-68
2022/11/17 13:43:21;;;;;;;1.83;0.35;;;17.10;99.90;;;;;;5047905;28;20111;-68
2022/11/17 13:45:51;;;;;;;2.00;0.60;;;17.60;99.90;;;;;;5048068;28;20540;-68
2022/11/17 13:48:32;;;;;;;3.30;0.45;;;17.60;99.60;;;;;;5045958;28;20025;-67